createdAt,value
2022-08-14T00:01:03.073Z,19.46
2022-08-14T00:03:37.461Z,19.48
2022-08-14T00:06:25.363Z,19.46
2022-08-14T00:08:51.079Z,19.48
2022-08-14T00:11:17.539Z,19.49
2022-08-14T00:13:44.087Z,19.46
2022-08-14T00:16:41.611Z,19.44
2022-08-14T00:19:19.397Z,19.44
2022-08-14T00:21:47.813Z,19.50
2022-08-14T00:24:23.388Z,19.52
2022-08-14T00:26:57.369Z,19.54
2022-08-14T00:29:30.531Z,19.56
2022-08-14T00:32:50.322Z,19.55
2022-08-14T00:34:53.646Z,19.53
2022-08-14T00:37:20.728Z,19.50
2022-08-14T00:39:47.302Z,19.48
2022-08-14T00:42:55.234Z,19.47
2022-08-14T00:45:13.960Z,19.44
2022-08-14T00:47:43.232Z,19.43
2022-08-14T00:50:18.015Z,19.41
2022-08-14T00:52:50.730Z,19.38
2022-08-14T00:55:19.684Z,19.35
2022-08-14T00:58:06.946Z,19.29
2022-08-14T01:00:43.025Z,19.23
2022-08-14T01:03:21.840Z,19.21
2022-08-14T01:05:52.165Z,19.18
2022-08-14T01:08:57.488Z,19.14
2022-08-14T01:11:19.456Z,19.11
2022-08-14T01:13:50.799Z,19.07
2022-08-14T01:16:22.479Z,19.01
2022-08-14T01:19:12.889Z,18.95
2022-08-14T01:21:47.209Z,18.91
2022-08-14T01:24:30.276Z,18.94
2022-08-14T01:27:01.213Z,19.00
2022-08-14T01:29:58.561Z,19.03
2022-08-14T01:32:22.581Z,19.04
2022-08-14T01:35:20.561Z,19.05
2022-08-14T01:37:46.745Z,19.03
2022-08-14T01:40:25.624Z,19.01
2022-08-14T01:43:00.111Z,18.98
2022-08-14T01:45:29.476Z,18.98
2022-08-14T01:48:07.179Z,18.96
2022-08-14T01:50:41.839Z,18.93
2022-08-14T01:53:09.538Z,18.92
2022-08-14T01:55:40.371Z,18.91
2022-08-14T01:58:19.644Z,18.88
2022-08-14T02:00:53.954Z,18.85
2022-08-14T02:03:20.943Z,18.84
2022-08-14T02:05:49.541Z,18.78
2022-08-14T02:08:22.314Z,18.76
2022-08-14T02:11:20.239Z,18.75
2022-08-14T02:13:50.605Z,18.77
2022-08-14T02:16:21.909Z,18.77
2022-08-14T02:18:49.203Z,18.77
2022-08-14T02:21:19.365Z,18.75
2022-08-14T02:23:53.615Z,18.71
2022-08-14T02:26:29.141Z,18.68
2022-08-14T02:29:00.384Z,18.66
2022-08-14T02:31:41.860Z,18.63
2022-08-14T02:34:22.185Z,18.65
2022-08-14T02:37:05.323Z,18.63
2022-08-14T02:39:37.256Z,18.61
2022-08-14T02:42:05.758Z,18.58
2022-08-14T02:44:39.821Z,18.53
2022-08-14T02:47:15.023Z,18.50
2022-08-14T02:49:45.966Z,18.46
2022-08-14T02:52:57.242Z,18.42
2022-08-14T02:55:20.695Z,18.39
2022-08-14T02:57:52.004Z,18.40
2022-08-14T03:00:25.476Z,18.36
2022-08-14T03:02:58.584Z,18.33
2022-08-14T03:05:32.942Z,18.28
2022-08-14T03:08:07.944Z,18.23
2022-08-14T03:10:34.709Z,18.21
2022-08-14T03:13:04.708Z,18.20
2022-08-14T03:15:34.503Z,18.17
2022-08-14T03:18:01.008Z,18.15
2022-08-14T03:20:30.161Z,18.12
2022-08-14T03:23:00.079Z,18.08
2022-08-14T03:25:26.885Z,18.05
2022-08-14T03:27:58.283Z,17.99
2022-08-14T03:30:39.053Z,17.96
2022-08-14T03:33:08.084Z,17.92
2022-08-14T03:35:39.812Z,17.90
2022-08-14T03:39:12.265Z,17.88
2022-08-14T03:40:58.028Z,17.85
2022-08-14T03:43:32.322Z,17.81
2022-08-14T03:46:00.384Z,17.79
2022-08-14T03:48:26.921Z,17.77
2022-08-14T03:50:59.546Z,17.76
2022-08-14T03:53:27.993Z,17.73
2022-08-14T03:55:58.610Z,17.73
2022-08-14T03:58:36.279Z,17.74
2022-08-14T04:01:03.430Z,17.74
2022-08-14T04:03:32.816Z,17.74
2022-08-14T04:06:00.963Z,17.75
2022-08-14T04:08:30.569Z,17.73
2022-08-14T04:11:02.026Z,17.72
2022-08-14T04:13:37.478Z,17.72
2022-08-14T04:16:18.080Z,17.73
2022-08-14T04:18:47.383Z,17.71
2022-08-14T04:21:16.139Z,17.70
2022-08-14T04:23:45.318Z,17.67
2022-08-14T04:26:27.316Z,17.67
2022-08-14T04:29:14.663Z,17.63
2022-08-14T04:32:58.749Z,17.59
2022-08-14T04:34:29.422Z,17.56
2022-08-14T04:37:22.058Z,17.56
2022-08-14T04:40:10.537Z,17.55
2022-08-14T04:42:56.179Z,17.54
2022-08-14T04:45:24.572Z,17.55
2022-08-14T04:48:10.802Z,17.56
2022-08-14T04:50:54.209Z,17.60
2022-08-14T04:53:26.561Z,17.64
2022-08-14T04:56:02.892Z,17.70
2022-08-14T04:58:33.907Z,17.74
2022-08-14T05:01:02.690Z,17.76
2022-08-14T05:03:31.899Z,17.82
2022-08-14T05:06:00.542Z,17.86
2022-08-14T05:08:32.194Z,17.90
2022-08-14T05:11:16.023Z,17.94
2022-08-14T05:16:31.617Z,18.03
2022-08-14T05:19:25.052Z,18.08
2022-08-14T05:21:59.879Z,18.14
2022-08-14T05:24:31.482Z,18.15
2022-08-14T05:26:59.309Z,18.18
2022-08-14T05:29:26.218Z,18.23
2022-08-14T05:31:57.328Z,18.26
2022-08-14T05:34:29.519Z,18.32
2022-08-14T05:37:02.525Z,18.40
2022-08-14T05:39:31.091Z,18.49
2022-08-14T05:41:58.179Z,18.60
2022-08-14T05:44:29.639Z,18.68
2022-08-14T05:46:56.745Z,18.77
2022-08-14T05:49:23.241Z,18.87
2022-08-14T05:51:59.443Z,19.10
2022-08-14T05:54:28.205Z,19.26
2022-08-14T05:57:02.404Z,19.35
2022-08-14T05:59:36.600Z,19.42
2022-08-14T06:02:07.508Z,19.52
2022-08-14T06:04:36.686Z,19.65
2022-08-14T06:07:03.382Z,19.73
2022-08-14T06:09:36.064Z,19.80
2022-08-14T06:12:08.682Z,19.83
2022-08-14T06:14:36.061Z,19.89
2022-08-14T06:17:04.541Z,19.90
2022-08-14T06:19:31.279Z,19.99
2022-08-14T06:21:58.230Z,20.16
2022-08-14T06:24:26.114Z,20.31
2022-08-14T06:26:56.818Z,20.43
2022-08-14T06:29:32.501Z,20.59
2022-08-14T06:32:38.259Z,20.74
2022-08-14T06:35:02.499Z,20.84
2022-08-14T06:37:47.680Z,20.98
2022-08-14T06:40:27.381Z,21.14
2022-08-14T06:42:56.908Z,21.32
2022-08-14T06:45:28.127Z,21.51
2022-08-14T06:47:55.491Z,21.62
2022-08-14T06:50:27.853Z,21.75
2022-08-14T06:52:55.762Z,21.88
2022-08-14T06:55:27.688Z,22.03
2022-08-14T06:57:54.608Z,22.17
2022-08-14T07:00:27.021Z,22.28
2022-08-14T07:03:14.155Z,22.41
2022-08-14T07:05:58.236Z,22.58
2022-08-14T07:08:29.537Z,22.76
2022-08-14T07:11:00.063Z,22.90
2022-08-14T07:13:28.331Z,23.01
2022-08-14T07:15:56.428Z,23.07
2022-08-14T07:18:30.948Z,23.23
2022-08-14T07:20:59.656Z,23.40
2022-08-14T07:23:27.164Z,23.55
2022-08-14T07:25:56.489Z,23.78
2022-08-14T07:28:29.432Z,24.01
2022-08-14T07:31:05.084Z,24.22
2022-08-14T07:33:50.214Z,24.42
2022-08-14T07:36:27.577Z,24.65
2022-08-14T07:39:03.235Z,24.79
2022-08-14T07:41:39.294Z,24.91
2022-08-14T07:44:29.525Z,25.09
2022-08-14T07:46:58.143Z,25.33
2022-08-14T07:49:25.436Z,25.46
2022-08-14T07:51:52.091Z,25.68
2022-08-14T07:54:23.316Z,25.79
2022-08-14T07:57:01.103Z,25.84
2022-08-14T07:59:41.180Z,25.89
2022-08-14T08:02:18.741Z,26.08
2022-08-14T08:04:54.080Z,26.34
2022-08-14T08:07:22.304Z,26.45
2022-08-14T08:09:53.681Z,26.63
2022-08-14T08:12:26.187Z,26.96
2022-08-14T08:15:03.183Z,27.08
2022-08-14T08:17:39.080Z,27.16
2022-08-14T08:20:16.836Z,27.38
2022-08-14T08:22:49.745Z,27.58
2022-08-14T08:25:22.663Z,27.75
2022-08-14T08:27:59.856Z,27.81
2022-08-14T08:30:27.709Z,27.87
2022-08-14T08:32:57.323Z,28.01
2022-08-14T08:35:32.917Z,28.23
2022-08-14T08:39:18.147Z,28.32
2022-08-14T08:41:04.727Z,28.28
2022-08-14T08:43:36.436Z,28.35
2022-08-14T08:46:04.620Z,28.45
2022-08-14T08:48:50.176Z,28.72
2022-08-14T08:51:43.030Z,29.07
2022-08-14T08:54:18.200Z,29.15
2022-08-14T08:56:52.139Z,29.18
2022-08-14T08:59:27.132Z,29.29
2022-08-14T09:02:04.917Z,29.63
2022-08-14T09:04:37.695Z,29.57
2022-08-14T09:07:14.465Z,29.62
2022-08-14T09:09:54.303Z,29.73
2022-08-14T09:12:26.883Z,30.01
2022-08-14T09:14:54.620Z,30.18
2022-08-14T09:17:25.704Z,30.17
2022-08-14T09:19:53.685Z,30.33
2022-08-14T09:22:45.094Z,30.25
2022-08-14T09:25:07.716Z,30.56
2022-08-14T09:27:36.371Z,30.56
2022-08-14T09:30:31.632Z,30.65
2022-08-14T09:33:22.664Z,30.87
2022-08-14T09:36:18.719Z,30.96
2022-08-14T09:39:03.927Z,31.02
2022-08-14T09:42:20.118Z,30.97
2022-08-14T09:44:59.933Z,31.36
2022-08-14T09:47:52.084Z,31.37
2022-08-14T09:50:30.570Z,31.52
2022-08-14T09:53:04.765Z,31.78
2022-08-14T09:55:42.630Z,31.75
2022-08-14T09:58:21.007Z,31.67
2022-08-14T10:00:49.421Z,31.64
2022-08-14T10:03:33.818Z,31.87
2022-08-14T10:06:19.478Z,32.07
2022-08-14T10:09:03.122Z,32.24
2022-08-14T10:11:37.763Z,32.14
2022-08-14T10:14:21.154Z,32.33
2022-08-14T10:17:02.525Z,32.55
2022-08-14T10:19:31.540Z,32.61
2022-08-14T10:23:12.580Z,32.75
2022-08-14T10:24:59.822Z,32.84
2022-08-14T10:27:28.155Z,32.91
2022-08-14T10:30:00.673Z,32.89
2022-08-14T10:32:39.940Z,32.83
2022-08-14T10:35:14.766Z,33.02
2022-08-14T10:37:50.296Z,33.16
2022-08-14T10:40:37.884Z,33.26
2022-08-14T10:43:26.471Z,33.29
2022-08-14T10:46:03.308Z,33.37
2022-08-14T10:49:02.708Z,33.31
2022-08-14T10:51:34.211Z,33.25
2022-08-14T10:54:17.087Z,33.31
2022-08-14T10:56:55.838Z,33.40
2022-08-14T10:59:22.855Z,33.52
2022-08-14T11:02:01.371Z,33.70
2022-08-14T11:04:28.437Z,33.96
2022-08-14T11:06:57.620Z,34.20
2022-08-14T11:09:26.258Z,34.36
2022-08-14T11:12:34.765Z,34.40
2022-08-14T11:14:59.206Z,34.64
2022-08-14T11:17:31.860Z,34.53
2022-08-14T11:20:00.482Z,34.67
2022-08-14T11:22:52.606Z,34.81
2022-08-14T11:25:16.917Z,35.12
2022-08-14T11:27:45.590Z,35.12
2022-08-14T11:30:51.438Z,35.21
2022-08-14T11:33:09.071Z,34.88
2022-08-14T11:35:47.277Z,35.01
2022-08-14T11:38:14.659Z,35.08
2022-08-14T11:40:47.271Z,35.17
2022-08-14T11:43:15.110Z,35.10
2022-08-14T11:45:47.904Z,35.31
2022-08-14T11:49:03.485Z,35.45
2022-08-14T11:51:12.895Z,35.56
2022-08-14T11:53:42.162Z,35.65
2022-08-14T11:56:10.963Z,35.88
2022-08-14T11:58:38.487Z,35.95
2022-08-14T12:01:08.229Z,35.93
2022-08-14T12:03:51.192Z,36.07
2022-08-14T12:06:29.807Z,36.17
2022-08-14T12:09:08.855Z,36.18
2022-08-14T12:11:44.123Z,36.06
2022-08-14T12:14:30.798Z,36.23
2022-08-14T12:17:05.061Z,36.29
2022-08-14T12:19:33.502Z,36.03
2022-08-14T12:22:01.778Z,36.14
2022-08-14T12:24:35.692Z,36.12
2022-08-14T12:27:02.955Z,35.36
2022-08-14T12:29:29.797Z,35.28
2022-08-14T12:32:08.940Z,35.45
2022-08-14T12:34:40.701Z,35.69
2022-08-14T12:37:12.014Z,36.11
2022-08-14T12:39:39.635Z,36.21
2022-08-14T12:42:07.513Z,36.32
2022-08-14T12:44:37.441Z,36.33
2022-08-14T12:47:04.232Z,36.64
2022-08-14T12:49:34.269Z,37.02
2022-08-14T12:52:02.961Z,36.87
2022-08-14T12:54:32.063Z,37.06
2022-08-14T12:57:19.898Z,37.25
2022-08-14T12:59:47.363Z,37.24
2022-08-14T13:02:25.309Z,37.02
2022-08-14T13:04:54.139Z,36.23
2022-08-14T13:07:20.763Z,35.89
2022-08-14T13:09:47.990Z,35.58
2022-08-14T13:12:32.332Z,35.09
2022-08-14T13:15:08.650Z,34.73
2022-08-14T13:17:51.795Z,34.78
2022-08-14T13:20:23.409Z,34.24
2022-08-14T13:22:53.222Z,34.42
2022-08-14T13:25:27.561Z,34.32
2022-08-14T13:27:57.774Z,34.18
2022-08-14T13:30:25.642Z,34.00
2022-08-14T13:32:54.469Z,33.88
2022-08-14T13:35:24.834Z,34.25
2022-08-14T13:37:52.479Z,34.40
2022-08-14T13:40:26.266Z,34.26
2022-08-14T13:42:55.332Z,34.02
2022-08-14T13:45:33.989Z,33.69
2022-08-14T13:48:19.112Z,33.31
2022-08-14T13:50:59.365Z,33.13
2022-08-14T13:53:33.484Z,33.07
2022-08-14T13:56:01.469Z,33.06
2022-08-14T13:58:34.637Z,32.97
2022-08-14T14:01:02.666Z,33.33
2022-08-14T14:03:35.383Z,33.42
2022-08-14T14:06:03.586Z,33.48
2022-08-14T14:08:43.371Z,33.31
2022-08-14T14:11:23.898Z,33.21
2022-08-14T14:13:56.477Z,33.02
2022-08-14T14:16:30.117Z,32.90
2022-08-14T14:19:06.854Z,32.93
2022-08-14T14:21:36.486Z,33.40
2022-08-14T14:24:04.736Z,33.79
2022-08-14T14:26:33.223Z,33.94
2022-08-14T14:29:03.222Z,34.11
2022-08-14T14:31:31.364Z,34.29
2022-08-14T14:34:07.791Z,34.17
2022-08-14T14:36:43.541Z,33.79
2022-08-14T14:39:10.485Z,33.50
2022-08-14T14:41:43.488Z,33.26
2022-08-14T14:44:15.691Z,33.12
2022-08-14T14:46:46.142Z,33.11
2022-08-14T14:49:14.889Z,33.31
2022-08-14T14:51:45.112Z,33.39
2022-08-14T14:54:19.613Z,33.71
2022-08-14T14:56:59.198Z,33.87
2022-08-14T14:59:26.847Z,33.69
2022-08-14T15:02:02.270Z,33.41
2022-08-14T15:04:37.115Z,33.19
2022-08-14T15:07:06.273Z,33.00
2022-08-14T15:09:34.278Z,32.90
2022-08-14T15:12:02.031Z,33.22
2022-08-14T15:14:56.865Z,33.32
2022-08-14T15:17:24.979Z,33.44
2022-08-14T15:19:56.896Z,33.59
2022-08-14T15:22:25.339Z,33.49
2022-08-14T15:24:52.071Z,33.32
2022-08-14T15:27:26.131Z,33.29
2022-08-14T15:29:53.468Z,33.30
2022-08-14T15:32:23.253Z,33.20
2022-08-14T15:34:51.640Z,33.12
2022-08-14T15:37:22.105Z,33.05
2022-08-14T15:39:49.695Z,33.08
2022-08-14T15:42:20.478Z,33.09
2022-08-14T15:44:57.860Z,33.19
2022-08-14T15:47:30.642Z,33.25
2022-08-14T15:50:03.650Z,33.33
2022-08-14T15:52:35.379Z,33.38
2022-08-14T15:55:14.428Z,33.42
2022-08-14T15:58:02.163Z,33.41
2022-08-14T16:00:49.959Z,33.38
2022-08-14T16:03:18.098Z,33.37
2022-08-14T16:05:51.873Z,33.27
2022-08-14T16:08:26.826Z,33.17
2022-08-14T16:10:58.865Z,33.07
2022-08-14T16:13:41.812Z,33.01
2022-08-14T16:16:46.949Z,32.92
2022-08-14T16:19:12.837Z,32.81
2022-08-14T16:21:40.660Z,32.71
2022-08-14T16:24:08.241Z,32.58
2022-08-14T16:27:00.748Z,32.50
2022-08-14T16:29:29.104Z,32.47
2022-08-14T16:31:58.047Z,32.47
2022-08-14T16:34:46.057Z,32.43
2022-08-14T16:37:12.778Z,32.36
2022-08-14T16:39:41.716Z,32.32
2022-08-14T16:43:02.500Z,32.27
2022-08-14T16:44:59.750Z,32.22
2022-08-14T16:47:34.884Z,32.16
2022-08-14T16:50:08.462Z,32.10
2022-08-14T16:52:43.918Z,31.99
2022-08-14T16:55:14.001Z,31.91
2022-08-14T16:57:54.679Z,31.82
2022-08-14T17:00:43.378Z,31.72
2022-08-14T17:03:12.145Z,31.63
2022-08-14T17:05:43.067Z,31.54
2022-08-14T17:08:31.849Z,31.39
2022-08-14T17:11:09.933Z,31.25
2022-08-14T17:13:48.040Z,31.19
2022-08-14T17:16:26.084Z,31.11
2022-08-14T17:19:00.881Z,30.99
2022-08-14T17:21:37.417Z,30.89
2022-08-14T17:24:57.532Z,30.80
2022-08-14T17:27:00.169Z,30.67
2022-08-14T17:29:34.047Z,30.59
2022-08-14T17:32:21.956Z,30.48
2022-08-14T17:34:55.265Z,30.36
2022-08-14T17:37:28.171Z,30.28
2022-08-14T17:40:15.129Z,30.16
2022-08-14T17:42:51.547Z,30.07
2022-08-14T17:45:42.971Z,29.96
2022-08-14T17:49:15.718Z,29.83
2022-08-14T17:51:15.112Z,29.68
2022-08-14T17:53:53.600Z,29.56
2022-08-14T17:56:30.965Z,29.42
2022-08-14T17:59:05.934Z,29.33
2022-08-14T18:01:38.090Z,29.25
2022-08-14T18:04:24.430Z,29.18
2022-08-14T18:07:16.405Z,29.08
2022-08-14T18:09:57.261Z,28.98
2022-08-14T18:12:36.710Z,28.84
2022-08-14T18:15:14.841Z,28.76
2022-08-14T18:17:45.128Z,28.68
2022-08-14T18:21:39.881Z,28.58
2022-08-14T18:23:08.083Z,28.44
2022-08-14T18:25:51.934Z,28.34
2022-08-14T18:28:48.460Z,28.21
2022-08-14T18:31:20.288Z,28.08
2022-08-14T18:34:11.935Z,27.98
2022-08-14T18:36:52.763Z,27.91
2022-08-14T18:39:34.616Z,27.78
2022-08-14T18:42:23.095Z,27.67
2022-08-14T18:44:50.573Z,27.58
2022-08-14T18:47:17.465Z,27.49
2022-08-14T18:50:26.530Z,27.42
2022-08-14T18:53:06.947Z,27.25
2022-08-14T18:55:33.523Z,27.17
2022-08-14T18:58:00.789Z,27.09
2022-08-14T19:00:32.854Z,27.00
2022-08-14T19:03:01.499Z,26.92
2022-08-14T19:05:37.564Z,26.86
2022-08-14T19:08:25.158Z,26.82
2022-08-14T19:10:59.606Z,26.76
2022-08-14T19:13:48.233Z,26.66
2022-08-14T19:16:19.044Z,26.55
2022-08-14T19:19:00.635Z,26.50
2022-08-14T19:21:34.740Z,26.40
2022-08-14T19:24:27.061Z,26.28
2022-08-14T19:27:24.395Z,26.20
2022-08-14T19:30:19.674Z,26.11
2022-08-14T19:32:51.103Z,26.03
2022-08-14T19:35:19.660Z,26.00
2022-08-14T19:37:54.959Z,25.91
2022-08-14T19:40:29.212Z,25.85
2022-08-14T19:42:59.172Z,25.78
2022-08-14T19:45:27.113Z,25.72
2022-08-14T19:47:53.929Z,25.66
2022-08-14T19:50:38.843Z,25.64
2022-08-14T19:53:16.558Z,25.59
2022-08-14T19:55:56.851Z,25.47
2022-08-14T19:58:55.010Z,25.40
2022-08-14T20:01:44.790Z,25.31
2022-08-14T20:04:44.874Z,25.24
2022-08-14T20:07:09.127Z,25.12
2022-08-14T20:11:08.058Z,25.06
2022-08-14T20:12:36.728Z,24.98
2022-08-14T20:15:20.934Z,24.92
2022-08-14T20:17:52.973Z,24.85
2022-08-14T20:20:31.597Z,24.84
2022-08-14T20:23:11.471Z,24.77
2022-08-14T20:25:55.783Z,24.70
2022-08-14T20:28:31.879Z,24.63
2022-08-14T20:31:14.294Z,24.59
2022-08-14T20:34:07.867Z,24.51
2022-08-14T20:36:46.062Z,24.43
2022-08-14T20:39:15.707Z,24.36
2022-08-14T20:41:51.382Z,24.32
2022-08-14T20:44:40.638Z,24.25
2022-08-14T20:47:08.132Z,24.21
2022-08-14T20:49:36.377Z,24.14
2022-08-14T20:52:18.591Z,24.10
2022-08-14T20:54:51.012Z,24.04
2022-08-14T20:57:18.757Z,24.01
2022-08-14T20:59:53.214Z,23.95
2022-08-14T21:02:34.209Z,23.90
2022-08-14T21:05:16.868Z,23.83
2022-08-14T21:07:51.015Z,23.81
2022-08-14T21:10:33.032Z,23.77
2022-08-14T21:14:08.944Z,23.73
2022-08-14T21:15:57.764Z,23.68
2022-08-14T21:18:34.340Z,23.62
2022-08-14T21:21:07.928Z,23.61
2022-08-14T21:23:54.445Z,23.53
2022-08-14T21:26:50.882Z,23.48
2022-08-14T21:29:11.284Z,23.46
2022-08-14T21:31:38.754Z,23.41
2022-08-14T21:34:30.990Z,23.39
2022-08-14T21:36:54.553Z,23.36
2022-08-14T21:39:24.716Z,23.31
2022-08-14T21:41:58.828Z,23.28
2022-08-14T21:44:42.612Z,23.22
2022-08-14T21:47:10.166Z,23.21
2022-08-14T21:49:39.126Z,23.20
2022-08-14T21:52:50.429Z,23.17
2022-08-14T21:54:59.695Z,23.15
2022-08-14T21:57:53.671Z,23.11
2022-08-14T22:00:35.326Z,23.09
2022-08-14T22:03:09.206Z,23.04
2022-08-14T22:05:41.067Z,23.01
2022-08-14T22:08:12.390Z,22.98
2022-08-14T22:10:42.456Z,22.96
2022-08-14T22:13:12.119Z,22.95
2022-08-14T22:15:43.838Z,22.90
2022-08-14T22:18:19.841Z,22.86
2022-08-14T22:20:53.857Z,22.84
2022-08-14T22:23:23.856Z,22.83
2022-08-14T22:25:51.089Z,22.78
2022-08-14T22:28:33.180Z,22.76
2022-08-14T22:31:02.588Z,22.71
2022-08-14T22:33:31.074Z,22.68
2022-08-14T22:36:00.267Z,22.64
2022-08-14T22:38:35.503Z,22.59
2022-08-14T22:41:28.037Z,22.54
2022-08-14T22:43:54.791Z,22.51
2022-08-14T22:46:21.498Z,22.44
2022-08-14T22:48:49.236Z,22.41
2022-08-14T22:51:18.672Z,22.38
2022-08-14T22:53:48.498Z,22.28
2022-08-14T22:56:20.689Z,22.26
2022-08-14T22:58:49.923Z,22.23
2022-08-14T23:01:56.122Z,22.17
2022-08-14T23:04:35.823Z,22.16
2022-08-14T23:07:22.174Z,22.14
2022-08-14T23:09:56.199Z,22.09
2022-08-14T23:12:28.233Z,22.06
2022-08-14T23:14:56.306Z,22.01
2022-08-14T23:17:22.873Z,22.01
2022-08-14T23:19:49.335Z,21.99
2022-08-14T23:22:24.243Z,21.94
2022-08-14T23:24:53.323Z,21.92
2022-08-14T23:27:31.708Z,21.90
2022-08-14T23:30:31.723Z,21.87
2022-08-14T23:33:01.755Z,21.86
2022-08-14T23:35:29.270Z,21.82
2022-08-14T23:38:01.809Z,21.77
2022-08-14T23:40:30.583Z,21.75
2022-08-14T23:43:07.038Z,21.72
2022-08-14T23:45:36.877Z,21.72
2022-08-14T23:48:04.511Z,21.74
2022-08-14T23:50:38.633Z,21.71
2022-08-14T23:53:47.458Z,21.72
2022-08-14T23:56:16.254Z,21.71
2022-08-14T23:58:49.218Z,21.69
